< Typhoon 198509 1985 Season Typhoon 198511 >
Typhoon 198510 (MAMIE)
General InformationTrack Information on Google MapsDetailed Wind InformationList of All Images || Disaster Info.ResourceGoogle EarthGE AnimationAtom FeedGeoJSON
Detalied Best Track (Time Zone = UTC)
Year Month Day Hour Lat. Long. Pressure (hPa) Wind (kt) Class Image Chart
1985 8 14 12 25.5 123.5 1002 0 2 Image Chart
1985 8 14 18 25.0 124.0 1000 0 2 Image Chart
1985 8 15 00 25.0 124.5 1000 0 2 Image Chart
1985 8 15 06 25.0 125.0 1000 0 2 Image Chart
1985 8 15 12 25.3 125.5 998 0 2 Image Chart
1985 8 15 18 25.8 126.0 998 0 2 Image Chart
1985 8 16 00 26.5 126.1 996 40 3 Image Chart
1985 8 16 06 27.1 126.1 994 45 3 Image Chart
1985 8 16 12 27.7 126.0 992 45 3 Image Chart
1985 8 16 18 28.2 125.8 990 50 4 Image Chart
1985 8 17 00 28.7 125.4 985 55 4 Image Chart
1985 8 17 06 29.1 124.8 985 60 4 Image Chart
1985 8 17 12 29.6 124.1 980 60 4 Image Chart
1985 8 17 18 30.1 123.4 975 65 5 Image Chart
1985 8 18 00 31.0 122.4 975 65 5 Image Chart
1985 8 18 06 31.9 121.8 985 60 4 Image Chart
1985 8 18 12 33.0 120.8 990 55 4 Image Chart
1985 8 18 18 34.2 120.0 990 55 4 Image Chart
1985 8 19 00 35.2 120.0 990 45 3 Image Chart
1985 8 19 06 37.2 120.0 990 40 3 Image Chart
1985 8 19 12 39.1 121.3 990 40 3 Image Chart
1985 8 19 18 42.0 123.0 998 0 6 Image Chart
1985 8 20 00 45.0 127.0 1002 0 6 Image Chart
1985 8 20 06 49.0 131.5 1002 0 6 Image Chart
1985 8 20 12 52.0 136.0 1002 0 6 Image Chart
1985 8 20 18 54.0 139.5 1000 0 6 Image Chart
1985 8 21 00 56.0 142.0 1002 0 6 Image Chart
1985 8 21 06 58.0 144.0 1002 0 6 Image Chart
1985 8 21 12 59.0 146.0 1000 0 6 Image Chart
1985 8 21 18 60.0 149.0 1000 0 6 Image Chart
Japan Meteorological Agency Best Track Data | Correction Date : 1992-10-21
< Typhoon 198509 1985 Season Typhoon 198511 >

Help